Time,TemperatureF,DewpointF,PressureIn,WindDirection,WindDirectionDegrees,WindSpeedMPH,WindSpeedGustMPH,Humidity,HourlyPrecipIn,Conditions,Clouds,dailyrainin,SoftwareType,DateUTC
2013-03-16 00:00:00,46.0,45.5,29.50,SSE,155,12.8,13.2,98,0.00,,-RA,0.00,VWS V14.01,2013-03-16 00:00:00,
2013-03-16 00:05:00,46.2,45.7,29.50,SW,227,15.0,15.9,98,0.00,,-RA,0.00,VWS V14.01,2013-03-16 00:05:00,
2013-03-16 00:10:00,46.2,45.7,29.50,SSW,202,11.0,17.0,98,0.00,,-RA,0.00,VWS V14.01,2013-03-16 00:10:00,
2013-03-16 00:15:00,46.2,45.7,29.50,South,185,15.0,17.4,98,0.00,,-RA,0.00,VWS V14.01,2013-03-16 00:15:00,
2013-03-16 00:21:00,46.2,45.7,29.50,SW,232,13.2,13.2,98,0.00,,-RA,0.00,VWS V14.01,2013-03-16 00:21:00,
2013-03-16 00:26:00,46.4,45.9,29.50,SSW,194,13.6,14.5,98,0.00,,-RA,0.00,VWS V14.01,2013-03-16 00:26:00,
2013-03-16 00:31:00,46.2,45.7,29.47,South,185,14.5,14.5,98,0.00,,-RA,0.00,VWS V14.01,2013-03-16 00:31:00,
2013-03-16 00:36:00,46.2,45.7,29.47,South,191,10.5,15.4,98,0.00,,-RA,0.00,VWS V14.01,2013-03-16 00:36:00,
2013-03-16 00:41:00,46.2,45.7,29.47,SSE,161,20.6,20.6,98,0.00,,-RA,0.00,VWS V14.01,2013-03-16 00:41:00,
2013-03-16 00:46:00,46.2,45.7,29.47,South,189,12.3,15.4,98,0.00,,-RA,0.00,VWS V14.01,2013-03-16 00:46:00,
2013-03-16 00:51:00,46.2,45.7,29.47,SSW,211,8.7,17.4,98,0.00,,-RA,0.00,VWS V14.01,2013-03-16 00:51:00,
2013-03-16 00:56:00,46.2,45.7,29.47,South,179,12.8,15.0,98,0.00,,-RA,0.00,VWS V14.01,2013-03-16 00:56:00,
2013-03-16 01:01:00,46.0,45.5,29.47,SSE,153,15.4,15.4,98,0.00,,-RA,0.00,VWS V14.01,2013-03-16 01:01:00,
2013-03-16 01:06:00,46.0,45.5,29.47,SSW,204,17.9,17.9,98,0.00,,-RA,0.00,VWS V14.01,2013-03-16 01:06:00,
2013-03-16 01:11:00,46.0,45.5,29.47,SSE,162,8.7,11.0,98,0.00,,-RA,0.00,VWS V14.01,2013-03-16 01:11:00,
2013-03-16 01:16:00,46.0,45.5,29.47,South,183,6.3,13.6,98,0.00,,-RA,0.00,VWS V14.01,2013-03-16 01:16:00,
2013-03-16 01:21:00,46.0,45.5,29.47,SSW,200,10.5,11.4,98,0.00,,-RA,0.00,VWS V14.01,2013-03-16 01:21:00,
2013-03-16 01:26:00,46.2,45.7,29.47,SW,219,10.5,11.0,98,0.00,,-RA,0.00,VWS V14.01,2013-03-16 01:26:00,
2013-03-16 01:31:00,46.0,45.5,29.47,South,188,11.0,11.0,98,0.00,,-RA,0.00,VWS V14.01,2013-03-16 01:31:00,
2013-03-16 01:36:00,46.0,45.5,29.47,West,262,15.0,15.0,98,0.00,,-RA,0.00,VWS V14.01,2013-03-16 01:36:00,
2013-03-16 01:41:00,46.0,45.5,29.47,SSE,166,13.2,13.2,98,0.00,,-RA,0.00,VWS V14.01,2013-03-16 01:41:00,
2013-03-16 01:46:00,46.0,45.5,29.47,SW,218,10.5,19.2,98,0.00,,-RA,0.00,VWS V14.01,2013-03-16 01:46:00,
2013-03-16 01:51:00,46.0,45.5,29.47,SSW,213,16.8,16.8,98,0.00,,-RA,0.00,VWS V14.01,2013-03-16 01:51:00,
2013-03-16 01:56:00,46.0,45.5,29.47,SSW,203,19.2,19.2,98,0.00,,-RA,0.00,VWS V14.01,2013-03-16 01:56:00,
2013-03-16 02:01:00,46.0,45.5,29.47,South,175,13.2,17.4,98,0.00,,BKN016///,0.00,VWS V14.01,2013-03-16 02:01:00,
2013-03-16 02:06:00,46.0,45.5,29.47,South,188,12.8,16.8,98,0.00,,BKN016///,0.00,VWS V14.01,2013-03-16 02:06:00,
2013-03-16 02:11:00,46.0,45.5,29.47,SSE,159,10.5,17.4,98,0.00,,BKN016///,0.00,VWS V14.01,2013-03-16 02:11:00,
2013-03-16 02:16:00,45.9,45.3,29.44,SSW,209,9.6,18.8,98,0.00,,BKN016///,0.00,VWS V14.01,2013-03-16 02:16:00,
2013-03-16 02:21:00,45.9,45.3,29.44,SW,220,17.0,17.0,98,0.00,,BKN016///,0.00,VWS V14.01,2013-03-16 02:21:00,
2013-03-16 02:26:00,45.9,45.3,29.44,SSW,202,8.3,17.9,98,0.00,,BKN016///,0.00,VWS V14.01,2013-03-16 02:26:00,
2013-03-16 02:31:00,45.9,45.3,29.44,SSW,195,19.7,19.7,98,0.00,,BKN016///,0.00,VWS V14.01,2013-03-16 02:31:00,
2013-03-16 02:36:00,45.9,45.3,29.44,SSW,206,12.3,23.7,98,0.00,,BKN016///,0.00,VWS V14.01,2013-03-16 02:36:00,
2013-03-16 02:41:00,45.7,45.2,29.44,SW,232,14.5,14.5,98,0.00,,BKN016///,0.00,VWS V14.01,2013-03-16 02:41:00,
2013-03-16 02:46:00,45.7,45.2,29.44,SW,223,15.4,21.9,98,0.00,,BKN016///,0.00,VWS V14.01,2013-03-16 02:46:00,
2013-03-16 02:51:00,45.9,45.1,29.44,South,181,12.8,16.3,97,0.00,,BKN016///,0.00,VWS V14.01,2013-03-16 02:51:00,
2013-03-16 02:56:00,45.9,45.1,29.44,SE,146,13.2,16.8,97,0.00,,BKN016///,0.00,VWS V14.01,2013-03-16 02:56:00,
2013-03-16 03:01:00,45.9,45.1,29.44,SSW,207,13.6,17.4,97,0.00,,BKN024///,0.00,VWS V14.01,2013-03-16 03:01:00,
2013-03-16 03:06:00,45.9,45.1,29.44,South,178,13.2,22.4,97,0.00,,BKN024///,0.00,VWS V14.01,2013-03-16 03:06:00,
2013-03-16 03:11:00,45.9,45.1,29.44,South,172,13.2,16.3,97,0.00,,BKN024///,0.00,VWS V14.01,2013-03-16 03:11:00,
2013-03-16 03:16:00,45.9,45.1,29.44,South,189,15.4,18.8,97,0.00,,BKN024///,0.00,VWS V14.01,2013-03-16 03:16:00,
2013-03-16 03:21:00,45.9,45.1,29.44,South,182,15.4,15.4,97,0.00,,BKN024///,0.00,VWS V14.01,2013-03-16 03:21:00,
2013-03-16 03:26:00,45.9,45.1,29.44,South,176,5.8,17.4,97,0.00,,BKN024///,0.00,VWS V14.01,2013-03-16 03:26:00,
2013-03-16 03:31:00,45.7,44.9,29.41,South,181,21.9,25.1,97,0.00,,BKN024///,0.00,VWS V14.01,2013-03-16 03:31:00,
2013-03-16 03:36:00,45.9,45.1,29.41,SW,222,11.4,13.6,97,0.00,,BKN024///,0.00,VWS V14.01,2013-03-16 03:36:00,
2013-03-16 03:41:00,45.7,44.9,29.41,SSW,203,6.3,14.5,97,0.00,,BKN024///,0.00,VWS V14.01,2013-03-16 03:41:00,
2013-03-16 03:46:00,45.7,44.6,29.41,SW,230,10.1,12.8,96,0.00,,BKN024///,0.00,VWS V14.01,2013-03-16 03:46:00,
2013-03-16 03:51:00,45.7,44.9,29.41,SSW,194,10.5,15.0,97,0.00,,BKN024///,0.00,VWS V14.01,2013-03-16 03:51:00,
2013-03-16 03:56:00,45.5,44.7,29.41,South,191,10.5,18.3,97,0.00,,BKN024///,0.00,VWS V14.01,2013-03-16 03:56:00,
2013-03-16 04:00:00,45.5,44.4,29.41,WSW,237,13.2,16.8,96,0.00,,BKN024///,0.00,VWS V14.01,2013-03-16 04:00:00,
2013-03-16 04:05:00,45.5,44.7,29.41,South,187,12.8,12.8,97,0.00,,BKN014,0.00,VWS V14.01,2013-03-16 04:05:00,
2013-03-16 04:10:00,45.7,44.9,29.41,SSW,208,6.3,8.7,97,0.00,,BKN014,0.00,VWS V14.01,2013-03-16 04:10:00,
2013-03-16 04:15:00,45.7,44.9,29.41,SSW,192,12.8,12.8,97,0.00,,BKN014,0.00,VWS V14.01,2013-03-16 04:15:00,
2013-03-16 04:20:00,45.5,44.7,29.41,SSE,161,10.5,13.2,97,0.00,,BKN014,0.00,VWS V14.01,2013-03-16 04:20:00,
2013-03-16 04:25:00,45.5,44.7,29.41,South,178,12.8,16.8,97,0.00,,BKN014,0.00,VWS V14.01,2013-03-16 04:25:00,
2013-03-16 04:30:00,45.5,44.7,29.41,South,172,22.8,22.8,97,0.00,,BKN014,0.00,VWS V14.01,2013-03-16 04:30:00,
2013-03-16 04:35:00,45.3,44.5,29.41,SSW,200,18.3,18.3,97,0.00,,BKN014,0.00,VWS V14.01,2013-03-16 04:35:00,
2013-03-16 04:40:00,45.3,44.5,29.41,South,183,12.3,17.0,97,0.00,,BKN014,0.00,VWS V14.01,2013-03-16 04:40:00,
2013-03-16 04:46:00,45.3,44.5,29.41,South,173,9.2,18.8,97,0.00,,BKN014,0.00,VWS V14.01,2013-03-16 04:46:00,
2013-03-16 04:50:00,45.3,44.5,29.41,WSW,241,14.5,14.5,97,0.00,,BKN014,0.00,VWS V14.01,2013-03-16 04:50:00,
2013-03-16 04:56:00,45.3,44.5,29.41,SSE,168,8.3,15.0,97,0.00,,BKN014,0.00,VWS V14.01,2013-03-16 04:56:00,
2013-03-16 05:01:00,45.3,44.5,29.41,SSE,168,16.3,17.9,97,0.00,,-RA,0.00,VWS V14.01,2013-03-16 05:01:00,
2013-03-16 05:06:00,45.0,44.2,29.41,SSW,213,14.1,17.4,97,0.00,,-RA,0.00,VWS V14.01,2013-03-16 05:06:00,
2013-03-16 05:11:00,45.0,44.2,29.41,SW,220,7.6,15.4,97,0.00,,-RA,0.00,VWS V14.01,2013-03-16 05:11:00,
2013-03-16 05:16:00,44.8,44.0,29.38,SSW,202,7.2,10.1,97,0.00,,-RA,0.00,VWS V14.01,2013-03-16 05:16:00,
2013-03-16 05:21:00,44.8,44.0,29.38,SSW,201,16.3,17.4,97,0.00,,-RA,0.00,VWS V14.01,2013-03-16 05:21:00,
2013-03-16 05:26:00,44.8,44.0,29.38,SSW,211,14.5,14.5,97,0.00,,-RA,0.00,VWS V14.01,2013-03-16 05:26:00,
2013-03-16 05:31:00,44.6,43.8,29.38,SSW,204,15.4,24.6,97,0.00,,-RA,0.00,VWS V14.01,2013-03-16 05:31:00,
2013-03-16 05:36:00,44.8,44.0,29.38,SSW,192,16.3,16.3,97,0.00,,-RA,0.00,VWS V14.01,2013-03-16 05:36:00,
2013-03-16 05:41:00,44.8,44.0,29.38,South,174,11.9,15.4,97,0.00,,-RA,0.00,VWS V14.01,2013-03-16 05:41:00,
2013-03-16 05:46:00,44.6,43.8,29.38,SE,132,8.1,12.3,97,0.00,,-RA,0.00,VWS V14.01,2013-03-16 05:46:00,
2013-03-16 05:51:00,44.6,43.8,29.38,SSE,164,17.4,21.0,97,0.08,,-RA,0.08,VWS V14.01,2013-03-16 05:51:00,
2013-03-16 05:56:00,44.6,43.8,29.38,South,177,11.0,12.8,97,0.08,,-RA,0.08,VWS V14.01,2013-03-16 05:56:00,
2013-03-16 06:02:00,44.6,43.8,29.38,SSW,197,17.4,17.4,97,0.08,,-RA,0.08,VWS V14.01,2013-03-16 06:02:00,
2013-03-16 06:07:00,44.6,43.8,29.38,SSW,211,16.8,16.8,97,0.08,,-RA,0.08,VWS V14.01,2013-03-16 06:07:00,
2013-03-16 06:12:00,44.6,43.8,29.38,SE,136,19.7,21.9,97,0.08,,-RA,0.08,VWS V14.01,2013-03-16 06:12:00,
2013-03-16 06:17:00,44.6,43.8,29.38,SSW,213,15.4,23.3,97,0.08,,-RA,0.08,VWS V14.01,2013-03-16 06:17:00,
2013-03-16 06:22:00,44.6,43.8,29.38,SSW,201,22.8,23.7,97,0.08,,-RA,0.08,VWS V14.01,2013-03-16 06:22:00,
2013-03-16 06:27:00,44.6,43.8,29.38,SSW,204,11.0,17.4,97,0.08,,-RA,0.08,VWS V14.01,2013-03-16 06:27:00,
2013-03-16 06:32:00,44.6,43.8,29.38,SW,215,11.0,11.9,97,0.08,,-RA,0.08,VWS V14.01,2013-03-16 06:32:00,
2013-03-16 06:37:00,44.6,43.8,29.38,SW,217,12.8,15.4,97,0.08,,-RA,0.08,VWS V14.01,2013-03-16 06:37:00,
2013-03-16 06:42:00,44.6,43.8,29.38,SSE,165,15.0,15.4,97,0.08,,-RA,0.08,VWS V14.01,2013-03-16 06:42:00,
2013-03-16 06:47:00,44.6,43.8,29.38,South,185,22.4,22.4,97,0.08,,-RA,0.08,VWS V14.01,2013-03-16 06:47:00,
2013-03-16 06:52:00,44.6,43.8,29.38,South,172,10.1,12.8,97,0.04,,-RA,0.12,VWS V14.01,2013-03-16 06:52:00,
2013-03-16 06:57:00,44.6,43.8,29.35,WSW,237,15.4,15.4,97,0.04,,-RA,0.12,VWS V14.01,2013-03-16 06:57:00,
2013-03-16 07:02:00,44.6,43.8,29.35,South,177,13.2,24.2,97,0.04,,RA,0.12,VWS V14.01,2013-03-16 07:02:00,
2013-03-16 07:07:00,44.6,43.8,29.35,SSW,203,16.8,21.0,97,0.04,,RA,0.12,VWS V14.01,2013-03-16 07:07:00,
2013-03-16 07:13:00,44.6,43.8,29.35,SSW,202,12.8,23.7,97,0.04,,RA,0.12,VWS V14.01,2013-03-16 07:13:00,
2013-03-16 07:18:00,44.6,43.8,29.35,South,184,17.0,23.3,97,0.04,,RA,0.12,VWS V14.01,2013-03-16 07:18:00,
2013-03-16 07:23:00,44.6,43.8,29.35,SW,218,8.7,15.9,97,0.04,,RA,0.12,VWS V14.01,2013-03-16 07:23:00,
2013-03-16 07:28:00,44.6,43.8,29.35,SSW,211,10.5,13.6,97,0.04,,RA,0.12,VWS V14.01,2013-03-16 07:28:00,
2013-03-16 07:33:00,44.6,43.8,29.35,SSW,200,14.5,14.5,97,0.04,,RA,0.12,VWS V14.01,2013-03-16 07:33:00,
2013-03-16 07:38:00,44.6,43.8,29.35,South,180,11.0,11.0,97,0.04,,RA,0.12,VWS V14.01,2013-03-16 07:38:00,
2013-03-16 07:43:00,44.6,43.8,29.35,SSW,202,15.4,18.8,97,0.04,,RA,0.12,VWS V14.01,2013-03-16 07:43:00,
2013-03-16 07:48:00,44.4,43.9,29.35,SSW,195,16.8,16.8,98,0.08,,RA,0.16,VWS V14.01,2013-03-16 07:48:00,
2013-03-16 07:53:00,44.4,43.9,29.35,SSW,192,12.8,14.5,98,0.04,,RA,0.16,VWS V14.01,2013-03-16 07:53:00,
2013-03-16 07:58:00,44.4,43.9,29.35,SW,217,12.8,15.0,98,0.04,,RA,0.16,VWS V14.01,2013-03-16 07:58:00,
2013-03-16 08:03:00,44.4,43.9,29.35,SSW,205,8.7,14.1,98,0.04,,-RA,0.16,VWS V14.01,2013-03-16 08:03:00,
2013-03-16 08:08:00,44.4,43.9,29.35,South,177,8.3,8.7,98,0.04,,-RA,0.16,VWS V14.01,2013-03-16 08:08:00,
2013-03-16 08:13:00,44.2,43.7,29.35,SSW,210,7.6,15.4,98,0.04,,-RA,0.16,VWS V14.01,2013-03-16 08:13:00,
2013-03-16 08:18:00,44.2,43.7,29.35,SSW,201,8.7,14.1,98,0.04,,-RA,0.16,VWS V14.01,2013-03-16 08:18:00,
2013-03-16 08:23:00,44.4,43.9,29.35,SSW,194,17.4,19.2,98,0.04,,-RA,0.16,VWS V14.01,2013-03-16 08:23:00,
2013-03-16 08:29:00,44.4,43.9,29.35,SSW,193,8.7,14.5,98,0.04,,-RA,0.16,VWS V14.01,2013-03-16 08:29:00,
2013-03-16 08:34:00,44.2,43.7,29.35,SSE,147,26.6,26.6,98,0.04,,-RA,0.16,VWS V14.01,2013-03-16 08:34:00,
2013-03-16 08:39:00,44.2,43.7,29.35,South,178,7.6,10.5,98,0.04,,-RA,0.16,VWS V14.01,2013-03-16 08:39:00,
2013-03-16 08:44:00,44.2,43.7,29.35,South,183,19.2,21.0,98,0.08,,-RA,0.20,VWS V14.01,2013-03-16 08:44:00,
2013-03-16 08:49:00,44.6,44.1,29.35,South,183,19.7,19.7,98,0.04,,-RA,0.20,VWS V14.01,2013-03-16 08:49:00,
2013-03-16 08:54:00,44.6,44.1,29.35,South,174,21.5,21.5,98,0.04,,-RA,0.20,VWS V14.01,2013-03-16 08:54:00,
2013-03-16 08:59:00,44.6,44.1,29.35,SSW,213,9.6,13.2,98,0.04,,-RA,0.20,VWS V14.01,2013-03-16 08:59:00,
2013-03-16 09:04:00,44.6,44.1,29.35,SSW,194,17.4,22.4,98,0.04,,RA,0.20,VWS V14.01,2013-03-16 09:04:00,
2013-03-16 09:09:00,44.6,44.1,29.35,SSW,206,18.3,18.3,98,0.04,,RA,0.20,VWS V14.01,2013-03-16 09:09:00,
2013-03-16 09:14:00,44.6,44.1,29.32,SSW,205,17.4,18.8,98,0.04,,RA,0.20,VWS V14.01,2013-03-16 09:14:00,
2013-03-16 09:19:00,44.6,44.1,29.32,SSW,198,15.0,19.7,98,0.04,,RA,0.20,VWS V14.01,2013-03-16 09:19:00,
2013-03-16 09:24:00,44.6,44.1,29.32,South,176,19.7,25.7,98,0.08,,RA,0.24,VWS V14.01,2013-03-16 09:24:00,
2013-03-16 09:29:00,44.6,44.1,29.32,South,171,18.8,20.1,98,0.08,,RA,0.24,VWS V14.01,2013-03-16 09:29:00,
2013-03-16 09:34:00,44.6,44.1,29.32,South,182,14.1,27.1,98,0.08,,RA,0.24,VWS V14.01,2013-03-16 09:34:00,
2013-03-16 09:39:00,44.6,44.1,29.32,SSW,193,12.3,19.7,98,0.08,,RA,0.24,VWS V14.01,2013-03-16 09:39:00,
2013-03-16 09:44:00,44.6,44.1,29.32,SSE,159,21.9,21.9,98,0.04,,RA,0.24,VWS V14.01,2013-03-16 09:44:00,
2013-03-16 09:49:00,44.6,44.1,29.32,South,187,11.0,12.8,98,0.04,,RA,0.24,VWS V14.01,2013-03-16 09:49:00,
2013-03-16 09:54:00,44.6,44.1,29.32,South,178,14.5,22.4,98,0.04,,RA,0.24,VWS V14.01,2013-03-16 09:54:00,
2013-03-16 09:59:00,43.9,43.3,29.32,SSE,168,11.0,17.9,98,0.04,,RA,0.24,VWS V14.01,2013-03-16 09:59:00,
2013-03-16 10:04:00,43.9,43.3,29.32,SSW,197,8.1,12.8,98,0.08,,RA,0.28,VWS V14.01,2013-03-16 10:04:00,
2013-03-16 10:09:00,43.9,43.3,29.32,SSW,212,22.8,22.8,98,0.08,,RA,0.28,VWS V14.01,2013-03-16 10:09:00,
2013-03-16 10:14:00,43.9,43.3,29.32,South,189,22.4,22.4,98,0.08,,RA,0.28,VWS V14.01,2013-03-16 10:14:00,
2013-03-16 10:19:00,43.9,43.3,29.32,SSW,199,8.1,17.4,98,0.08,,RA,0.28,VWS V14.01,2013-03-16 10:19:00,
2013-03-16 10:24:00,43.9,43.3,29.32,SSW,192,15.0,15.0,98,0.04,,RA,0.28,VWS V14.01,2013-03-16 10:24:00,
2013-03-16 10:30:00,43.9,43.3,29.32,SSE,160,17.4,24.2,98,0.04,,RA,0.28,VWS V14.01,2013-03-16 10:30:00,
2013-03-16 10:35:00,43.9,43.3,29.32,SSW,196,20.1,20.1,98,0.04,,RA,0.28,VWS V14.01,2013-03-16 10:35:00,
2013-03-16 10:40:00,43.9,43.3,29.32,South,187,25.1,25.1,98,0.04,,RA,0.28,VWS V14.01,2013-03-16 10:40:00,
2013-03-16 10:44:00,43.9,43.3,29.32,SSE,168,7.2,11.0,98,0.04,,RA,0.28,VWS V14.01,2013-03-16 10:44:00,
2013-03-16 10:50:00,43.9,43.3,29.32,South,184,15.4,24.2,98,0.04,,RA,0.28,VWS V14.01,2013-03-16 10:50:00,
2013-03-16 10:55:00,43.9,43.3,29.32,SSW,201,15.0,15.0,98,0.04,,RA,0.28,VWS V14.01,2013-03-16 10:55:00,
2013-03-16 11:00:00,43.9,43.3,29.32,South,169,10.5,19.2,98,0.04,,RA,0.28,VWS V14.01,2013-03-16 11:00:00,
2013-03-16 11:05:00,43.9,43.3,29.32,SSW,209,8.3,15.4,98,0.00,,RA,0.28,VWS V14.01,2013-03-16 11:05:00,
2013-03-16 11:10:00,44.8,44.2,29.32,SSW,209,14.5,14.5,98,0.00,,RA,0.28,VWS V14.01,2013-03-16 11:10:00,
2013-03-16 11:15:00,45.1,44.6,29.32,SSW,206,20.6,20.6,98,0.00,,RA,0.28,VWS V14.01,2013-03-16 11:15:00,
2013-03-16 11:20:00,45.3,44.8,29.32,South,177,15.4,19.7,98,0.00,,RA,0.28,VWS V14.01,2013-03-16 11:20:00,
2013-03-16 11:25:00,45.5,45.0,29.32,SSW,195,11.0,25.1,98,0.00,,RA,0.28,VWS V14.01,2013-03-16 11:25:00,
2013-03-16 11:30:00,45.3,44.8,29.32,SSW,210,15.0,15.0,98,0.00,,RA,0.28,VWS V14.01,2013-03-16 11:30:00,
2013-03-16 11:35:00,45.3,44.8,29.32,SSW,203,19.2,19.2,98,0.00,,RA,0.28,VWS V14.01,2013-03-16 11:35:00,
2013-03-16 11:40:00,45.3,44.8,29.32,South,180,13.6,13.6,98,0.00,,RA,0.28,VWS V14.01,2013-03-16 11:40:00,
2013-03-16 11:45:00,45.3,44.8,29.32,SW,220,7.6,7.6,98,0.04,,RA,0.31,VWS V14.01,2013-03-16 11:45:00,
2013-03-16 11:50:00,45.3,44.8,29.32,SSW,202,8.7,8.7,98,0.04,,RA,0.31,VWS V14.01,2013-03-16 11:50:00,
2013-03-16 11:55:00,45.3,44.8,29.32,SSE,164,10.5,10.5,98,0.04,,RA,0.31,VWS V14.01,2013-03-16 11:55:00,
2013-03-16 12:00:00,45.3,44.8,29.32,SW,236,8.3,12.3,98,0.04,,-RA,0.31,VWS V14.01,2013-03-16 12:00:00,
2013-03-16 12:05:00,45.3,44.8,29.32,SSE,168,9.6,9.6,98,0.04,,-RA,0.31,VWS V14.01,2013-03-16 12:05:00,
2013-03-16 12:10:00,45.3,44.8,29.32,South,191,8.1,10.5,98,0.04,,-RA,0.31,VWS V14.01,2013-03-16 12:10:00,
2013-03-16 12:15:00,45.3,44.8,29.32,SSW,195,6.3,7.6,98,0.04,,-RA,0.31,VWS V14.01,2013-03-16 12:15:00,
2013-03-16 12:20:00,45.3,44.8,29.32,SSW,207,8.7,8.7,98,0.04,,-RA,0.31,VWS V14.01,2013-03-16 12:20:00,
2013-03-16 12:26:00,45.3,44.8,29.32,SW,215,5.8,10.1,98,0.04,,-RA,0.31,VWS V14.01,2013-03-16 12:26:00,
2013-03-16 12:31:00,45.3,44.8,29.32,SSW,196,4.0,5.8,98,0.04,,-RA,0.31,VWS V14.01,2013-03-16 12:31:00,
2013-03-16 12:36:00,45.3,44.8,29.32,South,178,5.8,6.7,98,0.04,,-RA,0.31,VWS V14.01,2013-03-16 12:36:00,
2013-03-16 12:41:00,45.3,44.8,29.32,South,178,5.4,8.3,98,0.00,,-RA,0.31,VWS V14.01,2013-03-16 12:41:00,
2013-03-16 12:46:00,45.3,44.8,29.32,South,188,10.1,10.5,98,0.00,,-RA,0.31,VWS V14.01,2013-03-16 12:46:00,
2013-03-16 12:52:00,45.3,44.8,29.32,SSW,204,4.0,8.1,98,0.00,,-RA,0.31,VWS V14.01,2013-03-16 12:52:00,
2013-03-16 12:57:00,45.3,44.8,29.32,South,187,8.3,10.5,98,0.00,,-RA,0.31,VWS V14.01,2013-03-16 12:57:00,
2013-03-16 13:02:00,45.3,44.8,29.32,SSW,196,6.3,9.6,98,0.00,,BKN041,0.31,VWS V14.01,2013-03-16 13:02:00,
2013-03-16 13:07:00,45.3,44.8,29.32,South,189,8.3,8.3,98,0.00,,BKN041,0.31,VWS V14.01,2013-03-16 13:07:00,
2013-03-16 13:12:00,45.3,44.8,29.32,SSE,161,7.6,7.6,98,0.00,,BKN041,0.31,VWS V14.01,2013-03-16 13:12:00,
2013-03-16 13:17:00,45.3,44.8,29.32,South,191,2.7,7.6,98,0.00,,BKN041,0.31,VWS V14.01,2013-03-16 13:17:00,
2013-03-16 13:22:00,46.8,46.2,29.32,SSW,197,7.2,7.6,98,0.00,,BKN041,0.31,VWS V14.01,2013-03-16 13:22:00,
2013-03-16 13:27:00,46.8,46.2,29.32,SW,235,3.6,8.3,98,0.00,,BKN041,0.31,VWS V14.01,2013-03-16 13:27:00,
2013-03-16 13:32:00,46.8,46.2,29.32,SSW,202,8.7,8.7,98,0.00,,BKN041,0.31,VWS V14.01,2013-03-16 13:32:00,
2013-03-16 13:37:00,46.8,46.2,29.32,SSW,197,5.8,9.6,98,0.00,,BKN041,0.31,VWS V14.01,2013-03-16 13:37:00,
2013-03-16 13:42:00,46.8,46.2,29.29,SW,220,7.6,7.6,98,0.00,,BKN041,0.31,VWS V14.01,2013-03-16 13:42:00,
2013-03-16 13:47:00,46.8,46.2,29.29,South,181,6.3,8.7,98,0.00,,BKN041,0.31,VWS V14.01,2013-03-16 13:47:00,
2013-03-16 13:52:00,46.8,46.2,29.29,SW,219,6.3,8.7,98,0.00,,BKN041,0.31,VWS V14.01,2013-03-16 13:52:00,
2013-03-16 13:57:00,46.8,46.2,29.29,South,178,8.1,9.6,98,0.00,,BKN041,0.31,VWS V14.01,2013-03-16 13:57:00,
2013-03-16 14:02:00,46.8,46.2,29.29,SW,220,5.4,8.1,98,0.00,,BKN034,0.31,VWS V14.01,2013-03-16 14:02:00,
2013-03-16 14:08:00,46.8,46.2,29.29,SW,219,6.7,13.2,98,0.00,,BKN034,0.31,VWS V14.01,2013-03-16 14:08:00,
2013-03-16 14:13:00,46.8,46.2,29.29,SW,219,8.3,11.0,98,0.04,,BKN034,0.35,VWS V14.01,2013-03-16 14:13:00,
2013-03-16 14:18:00,46.8,46.2,29.29,SSW,208,5.4,7.2,98,0.04,,BKN034,0.35,VWS V14.01,2013-03-16 14:18:00,
2013-03-16 14:23:00,46.8,46.2,29.29,South,188,8.3,8.7,98,0.04,,BKN034,0.35,VWS V14.01,2013-03-16 14:23:00,
2013-03-16 14:28:00,46.8,46.2,29.29,South,189,5.8,10.1,98,0.04,,BKN034,0.35,VWS V14.01,2013-03-16 14:28:00,
2013-03-16 14:33:00,46.8,46.2,29.29,South,172,13.2,13.2,98,0.04,,BKN034,0.35,VWS V14.01,2013-03-16 14:33:00,
2013-03-16 14:38:00,46.8,46.2,29.29,North,353,3.6,4.0,98,0.04,,BKN034,0.35,VWS V14.01,2013-03-16 14:38:00,
2013-03-16 14:43:00,46.8,46.2,29.29,North,353,5.8,5.8,98,0.04,,BKN034,0.35,VWS V14.01,2013-03-16 14:43:00,
2013-03-16 14:48:00,46.8,46.2,29.29,SSW,196,7.6,7.6,98,0.04,,BKN034,0.35,VWS V14.01,2013-03-16 14:48:00,
2013-03-16 14:53:00,46.8,46.2,29.29,SE,137,8.3,8.3,98,0.04,,BKN034,0.35,VWS V14.01,2013-03-16 14:53:00,
2013-03-16 14:58:00,46.8,46.2,29.29,South,172,11.4,14.5,98,0.04,,BKN034,0.35,VWS V14.01,2013-03-16 14:58:00,
2013-03-16 15:03:00,46.8,46.2,29.29,SSW,198,6.3,6.3,98,0.04,,SCT036,0.35,VWS V14.01,2013-03-16 15:03:00,
2013-03-16 15:08:00,46.8,46.2,29.29,North,353,12.3,17.4,98,0.04,,SCT036,0.35,VWS V14.01,2013-03-16 15:08:00,
2013-03-16 15:14:00,46.8,46.2,29.29,South,191,10.1,13.2,98,0.00,,SCT036,0.35,VWS V14.01,2013-03-16 15:14:00,
2013-03-16 15:19:00,46.8,46.2,29.29,North,353,8.1,8.1,98,0.00,,SCT036,0.35,VWS V14.01,2013-03-16 15:19:00,
2013-03-16 15:24:00,46.8,46.2,29.29,SSE,162,6.3,6.3,98,0.00,,SCT036,0.35,VWS V14.01,2013-03-16 15:24:00,
2013-03-16 15:29:00,46.8,46.2,29.29,SSW,203,8.3,12.3,98,0.00,,SCT036,0.35,VWS V14.01,2013-03-16 15:29:00,
2013-03-16 15:34:00,46.8,46.2,29.29,South,175,8.7,8.7,98,0.00,,SCT036,0.35,VWS V14.01,2013-03-16 15:34:00,
2013-03-16 15:39:00,46.8,46.2,29.29,SSW,199,8.1,8.1,98,0.00,,SCT036,0.35,VWS V14.01,2013-03-16 15:39:00,
2013-03-16 15:44:00,46.8,46.2,29.29,South,180,12.8,12.8,98,0.00,,SCT036,0.35,VWS V14.01,2013-03-16 15:44:00,
2013-03-16 15:49:00,46.8,46.2,29.29,South,173,6.7,13.2,98,0.00,,SCT036,0.35,VWS V14.01,2013-03-16 15:49:00,
2013-03-16 15:54:00,46.8,46.2,29.29,South,189,8.7,8.7,98,0.00,,SCT036,0.35,VWS V14.01,2013-03-16 15:54:00,
2013-03-16 15:59:00,46.8,46.2,29.29,SSW,196,5.8,6.3,98,0.00,,SCT036,0.35,VWS V14.01,2013-03-16 15:59:00,
2013-03-16 16:04:00,46.8,46.2,29.29,North,353,4.0,5.8,98,0.00,,SHRA,0.35,VWS V14.01,2013-03-16 16:04:00,
2013-03-16 16:09:00,46.8,46.2,29.29,SSE,166,8.1,8.1,98,0.00,,SHRA,0.35,VWS V14.01,2013-03-16 16:09:00,
2013-03-16 16:14:00,46.8,46.2,29.29,South,175,11.0,11.0,98,0.00,,SHRA,0.35,VWS V14.01,2013-03-16 16:14:00,
2013-03-16 16:19:00,46.8,46.2,29.29,South,187,10.1,10.1,98,0.00,,SHRA,0.35,VWS V14.01,2013-03-16 16:19:00,
2013-03-16 16:24:00,46.8,46.2,29.29,SSW,201,8.7,12.3,98,0.00,,SHRA,0.35,VWS V14.01,2013-03-16 16:24:00,
2013-03-16 16:29:00,46.8,46.2,29.26,SE,141,10.5,10.5,98,0.00,,SHRA,0.35,VWS V14.01,2013-03-16 16:29:00,
2013-03-16 16:34:00,46.8,46.2,29.26,SSE,160,8.3,8.3,98,0.00,,SHRA,0.35,VWS V14.01,2013-03-16 16:34:00,
2013-03-16 16:39:00,46.8,46.2,29.26,South,171,8.3,12.8,98,0.00,,SHRA,0.35,VWS V14.01,2013-03-16 16:39:00,
2013-03-16 16:44:00,45.1,44.6,29.26,South,187,12.3,12.3,98,0.00,,SHRA,0.35,VWS V14.01,2013-03-16 16:44:00,
2013-03-16 16:49:00,45.1,44.6,29.26,South,177,8.1,8.1,98,0.00,,SHRA,0.35,VWS V14.01,2013-03-16 16:49:00,
2013-03-16 16:55:00,45.1,44.6,29.26,South,178,11.0,13.6,98,0.00,,SHRA,0.35,VWS V14.01,2013-03-16 16:55:00,
2013-03-16 17:00:00,45.1,44.6,29.26,SSE,151,8.3,13.2,98,0.00,,SHRA,0.35,VWS V14.01,2013-03-16 17:00:00,
2013-03-16 17:05:00,44.8,44.2,29.26,SSE,165,7.6,17.4,98,0.00,,SHRA,0.35,VWS V14.01,2013-03-16 17:05:00,
2013-03-16 17:10:00,44.8,44.2,29.26,SE,124,11.0,15.0,98,0.00,,SHRA,0.35,VWS V14.01,2013-03-16 17:10:00,
2013-03-16 17:15:00,44.6,44.1,29.26,SE,124,7.6,15.4,98,0.00,,SHRA,0.35,VWS V14.01,2013-03-16 17:15:00,
2013-03-16 17:20:00,44.2,43.7,29.26,SW,214,12.3,12.3,98,0.00,,SHRA,0.35,VWS V14.01,2013-03-16 17:20:00,
2013-03-16 17:25:00,44.1,43.5,29.26,SSE,152,11.0,11.0,98,0.00,,SHRA,0.35,VWS V14.01,2013-03-16 17:25:00,
2013-03-16 17:30:00,43.7,43.2,29.26,SE,144,5.8,12.3,98,0.00,,SHRA,0.35,VWS V14.01,2013-03-16 17:30:00,
2013-03-16 17:35:00,43.7,43.2,29.26,SE,145,11.0,14.5,98,0.00,,SHRA,0.35,VWS V14.01,2013-03-16 17:35:00,
2013-03-16 17:40:00,43.9,43.3,29.26,SSW,196,7.6,7.6,98,0.00,,SHRA,0.35,VWS V14.01,2013-03-16 17:40:00,
2013-03-16 17:45:00,43.9,43.3,29.26,SSE,166,5.8,11.0,98,0.00,,SHRA,0.35,VWS V14.01,2013-03-16 17:45:00,
2013-03-16 17:50:00,43.7,43.2,29.26,SSE,167,8.3,8.3,98,0.00,,SHRA,0.35,VWS V14.01,2013-03-16 17:50:00,
2013-03-16 17:55:00,43.7,43.2,29.26,SSE,148,8.1,12.3,98,0.00,,SHRA,0.35,VWS V14.01,2013-03-16 17:55:00,
2013-03-16 18:00:00,43.5,43.0,29.26,South,169,8.7,8.7,98,0.00,,SCT016,0.35,VWS V14.01,2013-03-16 18:00:00,
2013-03-16 18:05:00,43.5,43.0,29.26,SE,136,10.5,10.5,98,0.00,,SCT016,0.35,VWS V14.01,2013-03-16 18:05:00,
2013-03-16 18:10:00,43.5,43.0,29.26,South,175,8.7,12.3,98,0.00,,SCT016,0.35,VWS V14.01,2013-03-16 18:10:00,
2013-03-16 18:15:00,43.5,43.0,29.26,SSW,208,15.9,15.9,98,0.00,,SCT016,0.35,VWS V14.01,2013-03-16 18:15:00,
2013-03-16 18:20:00,43.5,43.0,29.26,SSE,155,8.1,10.1,98,0.00,,SCT016,0.35,VWS V14.01,2013-03-16 18:20:00,
2013-03-16 18:25:00,43.5,43.0,29.26,SSE,156,8.7,8.7,98,0.00,,SCT016,0.35,VWS V14.01,2013-03-16 18:25:00,
2013-03-16 18:30:00,43.3,42.8,29.26,South,172,7.6,8.3,98,0.00,,SCT016,0.35,VWS V14.01,2013-03-16 18:30:00,
2013-03-16 18:35:00,43.3,42.8,29.26,South,182,9.2,9.2,98,0.00,,SCT016,0.35,VWS V14.01,2013-03-16 18:35:00,
2013-03-16 18:40:00,43.3,42.8,29.26,South,174,16.3,16.3,98,0.00,,SCT016,0.35,VWS V14.01,2013-03-16 18:40:00,
2013-03-16 18:46:00,43.3,42.8,29.26,SSE,162,13.2,13.2,98,0.00,,SCT016,0.35,VWS V14.01,2013-03-16 18:46:00,
2013-03-16 18:51:00,43.2,42.6,29.26,SSE,152,17.4,17.4,98,0.00,,SCT016,0.35,VWS V14.01,2013-03-16 18:51:00,
2013-03-16 18:56:00,43.2,42.6,29.26,SSW,193,5.8,11.4,98,0.00,,SCT016,0.35,VWS V14.01,2013-03-16 18:56:00,
2013-03-16 19:01:00,43.0,42.5,29.26,SSW,197,4.9,10.1,98,0.00,,SHRA,0.35,VWS V14.01,2013-03-16 19:01:00,
2013-03-16 19:06:00,43.0,42.5,29.26,South,177,10.1,11.0,98,0.00,,SHRA,0.35,VWS V14.01,2013-03-16 19:06:00,
2013-03-16 19:11:00,43.0,42.5,29.26,SSW,210,8.1,12.3,98,0.00,,SHRA,0.35,VWS V14.01,2013-03-16 19:11:00,
2013-03-16 19:16:00,43.0,42.5,29.23,South,181,13.2,13.2,98,0.00,,SHRA,0.35,VWS V14.01,2013-03-16 19:16:00,
2013-03-16 19:21:00,43.2,42.6,29.23,South,190,8.7,13.2,98,0.00,,SHRA,0.35,VWS V14.01,2013-03-16 19:21:00,
2013-03-16 19:27:00,43.3,42.8,29.23,South,174,4.9,12.3,98,0.00,,SHRA,0.35,VWS V14.01,2013-03-16 19:27:00,
2013-03-16 19:32:00,43.3,42.8,29.23,South,171,8.3,13.2,98,0.00,,SHRA,0.35,VWS V14.01,2013-03-16 19:32:00,
2013-03-16 19:37:00,43.5,43.0,29.23,SE,126,6.3,8.3,98,0.00,,SHRA,0.35,VWS V14.01,2013-03-16 19:37:00,
2013-03-16 19:42:00,43.7,43.2,29.23,SSW,200,10.5,10.5,98,0.00,,SHRA,0.35,VWS V14.01,2013-03-16 19:42:00,
2013-03-16 19:47:00,43.7,43.2,29.23,SSE,156,8.3,8.3,98,0.00,,SHRA,0.35,VWS V14.01,2013-03-16 19:47:00,
2013-03-16 19:52:00,43.7,43.2,29.23,South,187,11.0,11.0,98,0.00,,SHRA,0.35,VWS V14.01,2013-03-16 19:52:00,
2013-03-16 19:57:00,43.5,43.0,29.23,SSE,167,8.1,10.1,98,0.00,,SHRA,0.35,VWS V14.01,2013-03-16 19:57:00,
2013-03-16 20:02:00,43.5,43.0,29.23,SSW,192,11.4,12.3,98,0.00,,SHRA,0.35,VWS V14.01,2013-03-16 20:02:00,
2013-03-16 20:07:00,43.7,43.2,29.23,South,189,5.4,9.2,98,0.00,,SHRA,0.35,VWS V14.01,2013-03-16 20:07:00,
2013-03-16 20:12:00,43.9,43.3,29.23,SSW,192,11.0,11.0,98,0.00,,SHRA,0.35,VWS V14.01,2013-03-16 20:12:00,
2013-03-16 20:17:00,43.9,43.3,29.23,South,184,6.3,8.7,98,0.00,,SHRA,0.35,VWS V14.01,2013-03-16 20:17:00,
2013-03-16 20:23:00,43.9,43.3,29.23,South,179,8.3,10.5,98,0.04,,SHRA,0.39,VWS V14.01,2013-03-16 20:23:00,
2013-03-16 20:28:00,43.9,43.3,29.21,South,183,5.8,8.7,98,0.04,,SHRA,0.39,VWS V14.01,2013-03-16 20:28:00,
2013-03-16 20:33:00,44.1,43.5,29.21,SSE,163,5.4,5.4,98,0.04,,SHRA,0.39,VWS V14.01,2013-03-16 20:33:00,
2013-03-16 20:38:00,44.1,43.5,29.21,SSE,149,5.8,11.0,98,0.04,,SHRA,0.39,VWS V14.01,2013-03-16 20:38:00,
2013-03-16 20:43:00,44.1,43.5,29.23,South,184,10.1,17.0,98,0.04,,SHRA,0.39,VWS V14.01,2013-03-16 20:43:00,
2013-03-16 20:48:00,44.1,43.5,29.23,ESE,113,10.1,10.1,98,0.04,,SHRA,0.39,VWS V14.01,2013-03-16 20:48:00,
2013-03-16 20:53:00,44.1,43.5,29.23,SSW,201,11.0,11.0,98,0.04,,SHRA,0.39,VWS V14.01,2013-03-16 20:53:00,
2013-03-16 20:58:00,44.1,43.5,29.23,SSW,200,10.5,11.0,98,0.08,,SHRA,0.43,VWS V14.01,2013-03-16 20:58:00,
2013-03-16 21:03:00,44.1,43.5,29.23,SW,235,6.3,11.0,98,0.08,,SHRA,0.43,VWS V14.01,2013-03-16 21:03:00,
2013-03-16 21:08:00,44.1,43.5,29.23,SW,226,4.0,5.8,98,0.08,,SHRA,0.43,VWS V14.01,2013-03-16 21:08:00,
2013-03-16 21:13:00,44.1,43.5,29.23,SSE,166,6.3,9.6,98,0.08,,SHRA,0.43,VWS V14.01,2013-03-16 21:13:00,
2013-03-16 21:18:00,44.1,43.5,29.23,South,174,8.7,15.4,98,0.12,,SHRA,0.47,VWS V14.01,2013-03-16 21:18:00,
2013-03-16 21:24:00,44.1,43.5,29.23,South,181,6.3,15.0,98,0.08,,SHRA,0.47,VWS V14.01,2013-03-16 21:24:00,
2013-03-16 21:29:00,44.1,43.5,29.23,SSE,157,8.1,9.6,98,0.08,,SHRA,0.47,VWS V14.01,2013-03-16 21:29:00,
2013-03-16 21:34:00,44.1,43.5,29.23,SSW,194,8.1,10.1,98,0.08,,SHRA,0.47,VWS V14.01,2013-03-16 21:34:00,
2013-03-16 21:39:00,44.1,43.5,29.23,SSW,195,6.3,11.0,98,0.08,,SHRA,0.47,VWS V14.01,2013-03-16 21:39:00,
2013-03-16 21:44:00,44.1,43.5,29.23,South,177,8.3,8.3,98,0.08,,SHRA,0.47,VWS V14.01,2013-03-16 21:44:00,
2013-03-16 21:49:00,43.2,42.6,29.23,SSE,155,5.4,5.4,98,0.08,,SHRA,0.47,VWS V14.01,2013-03-16 21:49:00,
2013-03-16 21:54:00,43.0,42.5,29.23,South,190,8.7,10.1,98,0.08,,SHRA,0.47,VWS V14.01,2013-03-16 21:54:00,
2013-03-16 21:59:00,43.0,42.5,29.23,South,190,8.3,11.0,98,0.04,,SHRA,0.47,VWS V14.01,2013-03-16 21:59:00,
2013-03-16 22:04:00,43.0,42.5,29.23,South,174,8.3,8.3,98,0.04,,SCT020,0.47,VWS V14.01,2013-03-16 22:04:00,
2013-03-16 22:09:00,43.0,42.5,29.23,South,186,8.3,8.7,98,0.04,,SCT020,0.47,VWS V14.01,2013-03-16 22:09:00,
2013-03-16 22:14:00,43.0,42.5,29.23,SSW,208,7.6,8.3,98,0.04,,SCT020,0.47,VWS V14.01,2013-03-16 22:14:00,
2013-03-16 22:19:00,43.0,42.5,29.23,SSW,205,5.8,9.6,98,0.00,,SCT020,0.47,VWS V14.01,2013-03-16 22:19:00,
2013-03-16 22:24:00,43.0,42.5,29.23,SW,222,7.6,11.4,98,0.00,,SCT020,0.47,VWS V14.01,2013-03-16 22:24:00,
2013-03-16 22:30:00,43.0,42.5,29.21,SSW,201,7.6,8.1,98,0.00,,SCT020,0.47,VWS V14.01,2013-03-16 22:30:00,
2013-03-16 22:35:00,43.0,42.5,29.21,SSW,210,4.9,7.6,98,0.00,,SCT020,0.47,VWS V14.01,2013-03-16 22:35:00,
2013-03-16 22:40:00,43.0,42.5,29.21,SW,217,10.1,10.1,98,0.00,,SCT020,0.47,VWS V14.01,2013-03-16 22:40:00,
2013-03-16 22:45:00,43.0,42.5,29.23,SW,218,5.8,8.7,98,0.00,,SCT020,0.47,VWS V14.01,2013-03-16 22:45:00,
2013-03-16 22:50:00,43.0,42.5,29.23,SSW,198,8.3,10.5,98,0.00,,SCT020,0.47,VWS V14.01,2013-03-16 22:50:00,
2013-03-16 22:55:00,43.0,42.5,29.23,SSW,197,3.1,13.2,98,0.00,,SCT020,0.47,VWS V14.01,2013-03-16 22:55:00,
2013-03-16 23:00:00,43.0,42.5,29.23,SW,220,6.3,11.0,98,0.00,,SCT040,0.47,VWS V14.01,2013-03-16 23:00:00,
2013-03-16 23:05:00,43.0,42.5,29.23,SW,218,4.0,10.5,98,0.00,,SCT040,0.47,VWS V14.01,2013-03-16 23:05:00,
2013-03-16 23:10:00,43.0,42.5,29.23,West,265,10.5,10.5,98,0.00,,SCT040,0.47,VWS V14.01,2013-03-16 23:10:00,
2013-03-16 23:15:00,43.0,42.5,29.23,SE,130,10.5,10.5,98,0.00,,SCT040,0.47,VWS V14.01,2013-03-16 23:15:00,
2013-03-16 23:20:00,43.0,42.5,29.23,SW,217,8.3,8.3,98,0.00,,SCT040,0.47,VWS V14.01,2013-03-16 23:20:00,
2013-03-16 23:25:00,43.0,42.5,29.23,SSW,201,3.1,10.1,98,0.00,,SCT040,0.47,VWS V14.01,2013-03-16 23:25:00,
2013-03-16 23:30:00,43.0,42.5,29.23,SSW,209,6.3,10.5,98,0.00,,SCT040,0.47,VWS V14.01,2013-03-16 23:30:00,
2013-03-16 23:35:00,43.0,42.5,29.23,SSW,197,8.3,8.3,98,0.00,,SCT040,0.47,VWS V14.01,2013-03-16 23:35:00,
2013-03-16 23:40:00,43.0,42.5,29.23,SSW,205,4.9,8.3,98,0.00,,SCT040,0.47,VWS V14.01,2013-03-16 23:40:00,
2013-03-16 23:45:00,42.1,41.6,29.23,SW,215,10.5,13.2,98,0.00,,SCT040,0.47,VWS V14.01,2013-03-16 23:45:00,
2013-03-16 23:50:00,42.1,41.6,29.23,SW,216,5.8,8.7,98,0.00,,SCT040,0.47,VWS V14.01,2013-03-16 23:50:00,
2013-03-16 23:55:00,42.1,41.6,29.23,South,190,7.6,8.7,98,0.00,,SCT040,0.47,VWS V14.01,2013-03-16 23:55:00,